Terminal Aerodrome Forecast
Issued by NWS

Home | Current Version | Previous Version | Text Only | Print | Product List | Glossary On
Versions: 1 2 3 4 5 6 7 8 9 10 11 12 13 14 15 16
000
FTUS41 KGYX 211720
TAFLEB
TAF
KLEB 211720Z 2118/2218 31015G22KT P6SM SCT045
     FM212100 30008KT P6SM SKC
     FM220800 VRB04KT P6SM SCT090=

USA.gov is the U.S. government's official web portal to all federal, state and local government web resources and services.